Time;durP1;ratioP1;P1;durP2;ratioP2;P2;SDS_P1;SDS_P2;PMS_P1;PMS_P2;Temp;Humidity;BMP_temperature;BMP_pressure;BME280_temperature;BME280_humidity;BME280_pressure;Samples;Min_cycle;Max_cycle;Signal;HPM_P1;HPM_P2
2020/12/08 00:01:38;;;;;;;52.50;20.15;;;;;;;0.61;87.89;99604.63;4920307;29;20131;-48
2020/12/08 00:04:04;;;;;;;35.58;16.58;;;;;;;0.67;88.00;99618.13;4919774;29;20078;-47
2020/12/08 00:06:30;;;;;;;51.10;18.55;;;;;;;0.68;88.28;99625.19;4919839;29;20563;-50
2020/12/08 00:08:57;;;;;;;43.08;17.70;;;;;;;0.68;88.00;99625.19;4919998;29;20135;-48
2020/12/08 00:11:24;;;;;;;44.33;17.05;;;;;;;0.69;88.10;99621.38;4919470;29;20063;-49
2020/12/08 00:13:50;;;;;;;49.83;18.92;;;;;;;0.72;88.16;99618.00;4919018;29;20078;-50
2020/12/08 00:16:17;;;;;;;39.90;17.02;;;;;;;0.76;87.83;99616.31;4919598;29;20123;-49
2020/12/08 00:18:43;;;;;;;38.60;16.45;;;;;;;0.75;87.98;99610.03;4918187;29;20068;-49
2020/12/08 00:21:09;;;;;;;41.10;19.33;;;;;;;0.77;88.08;99612.47;4919221;29;20455;-49
2020/12/08 00:23:36;;;;;;;39.22;17.08;;;;;;;0.79;88.00;99615.69;4919700;29;20119;-47
2020/12/08 00:26:02;;;;;;;37.45;17.10;;;;;;;0.84;88.11;99607.38;4918019;29;20078;-49
2020/12/08 00:28:28;;;;;;;35.65;17.35;;;;;;;0.86;88.26;99610.59;4903201;29;20044;-52
2020/12/08 00:30:55;;;;;;;34.03;17.13;;;;;;;0.88;87.92;99600.19;4915870;29;20384;-49
2020/12/08 00:33:21;;;;;;;40.63;17.08;;;;;;;0.87;87.67;99595.88;4916981;29;20092;-51
2020/12/08 00:35:47;;;;;;;40.42;17.13;;;;;;;0.87;87.93;99601.34;4916603;29;20104;-50
2020/12/08 00:38:13;;;;;;;37.70;16.02;;;;;;;0.85;88.14;99593.44;4917324;29;20040;-51
2020/12/08 00:40:40;;;;;;;35.90;16.48;;;;;;;0.86;87.91;99594.25;4916369;29;20048;-51
2020/12/08 00:43:07;;;;;;;37.53;15.90;;;;;;;0.88;88.20;99597.47;4917839;29;20129;-52
2020/12/08 00:45:34;;;;;;;43.25;17.52;;;;;;;0.88;87.91;99605.66;4919482;29;20123;-50
2020/12/08 00:48:00;;;;;;;36.25;16.45;;;;;;;0.87;88.12;99606.78;4919379;29;20128;-52
2020/12/08 00:50:27;;;;;;;36.25;17.25;;;;;;;0.88;88.21;99600.19;4909023;29;20407;-50
2020/12/08 00:52:53;;;;;;;36.33;15.27;;;;;;;0.92;88.23;99601.22;4918512;29;20068;-50
2020/12/08 00:55:19;;;;;;;35.80;16.45;;;;;;;0.89;88.05;99599.09;4918998;29;20083;-49
2020/12/08 00:57:46;;;;;;;35.95;16.05;;;;;;;0.92;88.17;99604.75;4919015;29;20052;-52
2020/12/08 01:00:12;;;;;;;39.88;18.40;;;;;;;0.94;88.14;99597.06;4910265;29;20123;-53
2020/12/08 01:02:38;;;;;;;42.80;18.05;;;;;;;0.95;88.21;99604.13;4918948;29;20059;-49
2020/12/08 01:05:11;;;;;;;42.67;17.60;;;;;;;0.97;88.05;99598.34;4918893;29;20048;-53
2020/12/08 01:07:39;;;;;;;41.05;17.98;;;;;;;0.96;87.98;99611.16;4918264;29;20458;-54
2020/12/08 01:10:08;;;;;;;36.92;17.45;;;;;;;0.98;88.05;99610.88;4918502;29;20072;-47
2020/12/08 01:12:37;;;;;;;36.50;16.77;;;;;;;0.97;88.08;99607.34;4918714;29;20055;-51
2020/12/08 01:15:04;;;;;;;34.88;16.85;;;;;;;0.99;88.28;99598.84;4919151;29;20045;-53
2020/12/08 01:17:32;;;;;;;35.85;16.45;;;;;;;0.98;88.18;99603.47;4942993;29;20134;-52
2020/12/08 01:19:59;;;;;;;37.85;18.85;;;;;;;1.00;88.50;99605.91;4957181;29;20070;-48
2020/12/08 01:22:26;;;;;;;32.35;16.88;;;;;;;1.01;88.20;99591.16;4956979;29;20122;-51
2020/12/08 01:24:52;;;;;;;37.60;18.65;;;;;;;1.03;88.25;99600.63;4954995;29;20051;-48
2020/12/08 01:27:18;;;;;;;36.28;16.77;;;;;;;1.04;88.03;99594.06;4938597;29;20375;-49
2020/12/08 01:29:45;;;;;;;31.10;16.88;;;;;;;1.05;88.02;99592.16;4946720;29;20122;-49
2020/12/08 01:32:12;;;;;;;34.80;16.70;;;;;;;1.07;87.93;99598.09;4956909;29;20118;-50
2020/12/08 01:34:40;;;;;;;32.22;17.30;;;;;;;1.08;87.89;99594.28;4947964;29;20086;-48
2020/12/08 01:37:07;;;;;;;35.60;15.82;;;;;;;1.07;88.07;99588.00;4947132;29;20054;-50
2020/12/08 01:39:33;;;;;;;32.25;16.08;;;;;;;1.06;87.92;99599.22;4948726;29;20052;-51
2020/12/08 01:41:59;;;;;;;30.45;15.05;;;;;;;1.04;88.10;99602.25;4937134;29;20142;-48
2020/12/08 01:44:25;;;;;;;32.75;16.10;;;;;;;1.04;87.89;99596.00;4943736;29;20094;-51
2020/12/08 01:46:52;;;;;;;27.30;15.70;;;;;;;1.03;87.86;99602.56;4948447;29;20451;-48
2020/12/08 01:49:18;;;;;;;34.80;17.25;;;;;;;1.02;88.04;99598.22;4942423;29;20463;-48
2020/12/08 01:51:47;;;;;;;31.25;15.60;;;;;;;1.04;87.94;99593.25;4956424;29;20065;-48
2020/12/08 01:54:14;;;;;;;26.83;14.60;;;;;;;1.02;87.85;99590.06;4934086;29;20135;-47
2020/12/08 01:56:40;;;;;;;28.75;14.88;;;;;;;1.02;87.82;99595.50;4943465;29;20614;-49
2020/12/08 01:59:07;;;;;;;34.58;15.98;;;;;;;1.02;87.93;99592.78;4944763;29;20398;-50
2020/12/08 02:01:36;;;;;;;29.88;15.68;;;;;;;0.99;87.98;99593.38;4919506;29;20063;-47
2020/12/08 02:04:02;;;;;;;29.88;15.60;;;;;;;0.98;87.76;99581.69;4939779;29;20118;-48
2020/12/08 02:06:28;;;;;;;26.67;14.00;;;;;;;0.97;87.71;99593.72;4950645;29;20456;-48
2020/12/08 02:08:54;;;;;;;26.40;14.50;;;;;;;0.98;87.85;99598.03;4953646;29;20490;-50
2020/12/08 02:11:21;;;;;;;27.42;14.60;;;;;;;0.95;87.63;99589.69;4953595;29;20375;-54
2020/12/08 02:13:47;;;;;;;21.33;12.23;;;;;;;0.94;87.90;99583.44;4945430;29;20043;-49
2020/12/08 02:16:14;;;;;;;27.38;13.63;;;;;;;0.94;87.86;99590.78;4935424;29;20130;-50
2020/12/08 02:18:40;;;;;;;25.40;13.10;;;;;;;0.95;87.69;99592.41;4952795;28;20134;-50
2020/12/08 02:21:10;;;;;;;23.55;13.18;;;;;;;0.94;87.92;99590.78;4950840;29;20051;-50
2020/12/08 02:23:36;;;;;;;21.48;12.85;;;;;;;0.96;88.17;99583.91;4949794;29;20040;-50
2020/12/08 02:26:05;;;;;;;22.70;11.75;;;;;;;0.97;88.15;99588.25;4934453;29;20051;-49
2020/12/08 02:28:32;;;;;;;26.92;12.70;;;;;;;0.98;88.06;99594.53;4946742;29;20092;-50
2020/12/08 02:30:59;;;;;;;23.90;12.43;;;;;;;0.99;87.91;99605.09;4934667;29;20135;-56
2020/12/08 02:33:28;;;;;;;26.05;14.60;;;;;;;0.98;87.94;99598.03;4948235;29;20446;-51
2020/12/08 02:35:55;;;;;;;23.60;12.77;;;;;;;0.99;87.74;99602.38;4953050;29;20122;-53
2020/12/08 02:38:24;;;;;;;24.42;13.13;;;;;;;0.97;87.95;99582.00;4953421;29;20057;-51
2020/12/08 02:40:51;;;;;;;22.08;12.57;;;;;;;0.96;87.83;99594.00;4955873;29;20453;-50
2020/12/08 02:43:18;;;;;;;23.67;12.80;;;;;;;0.95;87.76;99586.97;4936295;29;20489;-47
2020/12/08 02:45:44;;;;;;;24.40;12.80;;;;;;;0.92;87.71;99593.03;4936815;29;20051;-50
2020/12/08 02:48:12;;;;;;;27.20;12.60;;;;;;;0.92;87.86;99590.31;4953206;29;20389;-48
2020/12/08 02:50:57;;;;;;;23.17;12.23;;;;;;;0.90;87.61;99589.81;4945652;29;20046;-48
2020/12/08 02:53:25;;;;;;;23.40;12.25;;;;;;;0.89;87.76;99593.66;4952243;29;20137;-49
2020/12/08 02:55:52;;;;;;;24.10;12.32;;;;;;;0.87;87.94;99584.97;4936549;29;20072;-49
2020/12/08 02:58:18;;;;;;;24.80;13.10;;;;;;;0.84;87.79;99588.31;4935816;29;20430;-48
2020/12/08 03:00:44;;;;;;;23.63;13.32;;;;;;;0.82;87.72;99593.28;4935911;29;20077;-47
2020/12/08 03:03:13;;;;;;;27.27;13.32;;;;;;;0.82;87.66;99596.00;4941190;29;20044;-54
2020/12/08 03:05:39;;;;;;;24.85;12.63;;;;;;;0.81;87.63;99597.09;4936496;29;20078;-48
2020/12/08 03:08:05;;;;;;;22.38;11.93;;;;;;;0.76;87.48;99597.22;4935239;29;20131;-49
2020/12/08 03:10:32;;;;;;;20.00;10.63;;;;;;;0.76;87.16;99599.97;4941857;29;20039;-50
2020/12/08 03:12:58;;;;;;;20.48;11.85;;;;;;;0.72;87.69;99577.97;4950556;29;20058;-50
2020/12/08 03:15:25;;;;;;;19.70;11.88;;;;;;;0.72;87.61;99585.31;4936040;29;20122;-49
2020/12/08 03:17:51;;;;;;;28.10;11.82;;;;;;;0.72;87.60;99577.97;4945924;29;20051;-52
2020/12/08 03:20:17;;;;;;;20.13;11.93;;;;;;;0.72;87.61;99572.50;4935542;29;20044;-53
2020/12/08 03:22:44;;;;;;;19.55;10.50;;;;;;;0.70;88.17;99580.19;4936140;29;20133;-49
2020/12/08 03:25:10;;;;;;;19.35;10.40;;;;;;;0.72;88.08;99588.06;4949718;28;20081;-51
2020/12/08 03:27:36;;;;;;;22.63;11.25;;;;;;;0.74;87.78;99591.28;4935750;29;20130;-48
2020/12/08 03:30:05;;;;;;;18.40;11.63;;;;;;;0.74;88.09;99591.28;4934827;29;20530;-51
2020/12/08 03:32:32;;;;;;;17.20;9.68;;;;;;;0.74;87.44;99592.09;4936086;29;20382;-47
2020/12/08 03:34:58;;;;;;;18.80;10.35;;;;;;;0.77;87.57;99590.69;4935715;29;20047;-51
2020/12/08 03:37:24;;;;;;;19.63;10.15;;;;;;;0.77;87.80;99609.75;4935125;29;20072;-49
2020/12/08 03:39:51;;;;;;;16.15;9.85;;;;;;;0.80;87.92;99600.94;4933731;29;20098;-50
2020/12/08 03:42:17;;;;;;;19.38;10.35;;;;;;;0.81;87.68;99605.28;4950919;29;20051;-50
2020/12/08 03:44:43;;;;;;;19.52;10.40;;;;;;;0.83;87.86;99600.31;4935457;29;20048;-48
2020/12/08 03:47:10;;;;;;;16.45;9.80;;;;;;;0.86;87.70;99596.97;4935553;29;20107;-51
2020/12/08 03:49:36;;;;;;;16.38;9.85;;;;;;;0.85;87.85;99587.22;4935324;29;20127;-48
2020/12/08 03:52:02;;;;;;;17.70;9.98;;;;;;;0.83;87.66;99586.69;4935714;29;20056;-49
2020/12/08 03:54:33;;;;;;;20.38;10.68;;;;;;;0.79;87.54;99605.59;4935395;29;20495;-50
2020/12/08 03:56:59;;;;;;;15.63;9.93;;;;;;;0.76;87.41;99602.69;4935245;29;20108;-48
2020/12/08 03:59:25;;;;;;;14.70;9.18;;;;;;;0.73;87.51;99595.94;4935118;29;20048;-50
2020/12/08 04:01:52;;;;;;;16.88;9.82;;;;;;;0.71;87.54;99602.81;4935268;29;20076;-47
2020/12/08 04:04:21;;;;;;;16.17;10.93;;;;;;;0.67;87.40;99602.59;4935588;29;20050;-49
2020/12/08 04:06:47;;;;;;;17.35;10.30;;;;;;;0.67;87.53;99607.25;4935449;29;20040;-47
2020/12/08 04:09:14;;;;;;;16.35;10.10;;;;;;;0.61;87.44;99607.34;4935686;29;20442;-47
2020/12/08 04:11:41;;;;;;;24.80;9.88;;;;;;;0.61;87.52;99604.63;4935142;29;20039;-48
2020/12/08 04:14:07;;;;;;;15.40;9.32;;;;;;;0.59;87.57;99585.06;4935086;29;20130;-50
2020/12/08 04:16:36;;;;;;;15.02;9.10;;;;;;;0.58;87.57;99582.69;4931778;29;20044;-49
2020/12/08 04:19:04;;;;;;;19.52;8.68;;;;;;;0.57;87.48;99584.59;4916106;29;20051;-48
2020/12/08 04:21:31;;;;;;;17.17;9.25;;;;;;;0.55;87.66;99595.00;4915941;29;20498;-48
2020/12/08 04:24:00;;;;;;;18.65;9.93;;;;;;;0.54;87.33;99604.25;4916400;29;20099;-50
2020/12/08 04:26:32;;;;;;;17.05;7.90;;;;;;;0.53;87.57;99594.47;4916460;29;20040;-50
2020/12/08 04:29:00;;;;;;;15.35;8.60;;;;;;;0.52;87.55;99595.59;4904802;29;20056;-49
2020/12/08 04:31:27;;;;;;;14.95;8.63;;;;;;;0.52;87.50;99601.03;4919040;29;20048;-47
2020/12/08 04:33:54;;;;;;;14.98;8.38;;;;;;;0.54;87.82;99598.81;4916635;29;20056;-47
2020/12/08 04:36:21;;;;;;;17.75;8.13;;;;;;;0.54;87.69;99601.53;4916691;29;20048;-48
2020/12/08 04:38:49;;;;;;;17.85;8.73;;;;;;;0.56;87.74;99596.59;4919413;29;20091;-49
2020/12/08 04:41:20;;;;;;;16.25;8.63;;;;;;;0.57;87.64;99594.66;4917374;29;20525;-46
2020/12/08 04:43:47;;;;;;;13.10;7.93;;;;;;;0.57;87.65;99590.03;4919046;29;20439;-50
2020/12/08 04:46:16;;;;;;;13.07;7.85;;;;;;;0.57;87.77;99590.03;4919701;29;20126;-47
2020/12/08 04:48:42;;;;;;;11.13;6.97;;;;;;;0.57;87.61;99581.88;4919054;29;20131;-49
2020/12/08 04:51:08;;;;;;;12.27;6.45;;;;;;;0.57;88.03;99592.75;4919936;29;20470;-49
2020/12/08 04:53:35;;;;;;;12.38;7.55;;;;;;;0.59;87.71;99587.81;4919071;29;20082;-50
2020/12/08 04:56:01;;;;;;;10.80;6.75;;;;;;;0.57;87.99;99600.94;4919612;29;20376;-51
2020/12/08 04:58:28;;;;;;;12.27;6.80;;;;;;;0.57;87.82;99598.19;4918948;29;20111;-49
2020/12/08 05:00:54;;;;;;;12.80;6.82;;;;;;;0.58;87.78;99599.78;4919233;29;20054;-47
2020/12/08 05:03:26;;;;;;;13.50;6.30;;;;;;;0.60;88.04;99603.03;4918695;29;20055;-49
2020/12/08 05:05:52;;;;;;;11.52;6.50;;;;;;;0.64;87.81;99605.16;4920204;29;20115;-49
2020/12/08 05:08:19;;;;;;;14.60;6.60;;;;;;;0.64;88.20;99602.44;4920822;29;20071;-48
2020/12/08 05:10:47;;;;;;;11.70;7.72;;;;;;;0.66;88.16;99611.09;4919118;29;20498;-49
2020/12/08 05:13:18;;;;;;;13.82;6.25;;;;;;;0.69;88.16;99615.94;4918664;29;20123;-48
2020/12/08 05:16:06;;;;;;;11.95;5.43;;;;;;;0.68;88.27;99620.56;4918495;29;20079;-49
2020/12/08 05:18:35;;;;;;;11.88;6.30;;;;;;;0.70;88.01;99610.16;4919584;29;20064;-49
2020/12/08 05:21:11;;;;;;;11.25;6.10;;;;;;;0.70;88.15;99628.41;4918722;29;20135;-48
2020/12/08 05:23:46;;;;;;;9.32;5.93;;;;;;;0.71;88.34;99616.41;4906854;29;20513;-48
2020/12/08 05:26:15;;;;;;;14.50;6.63;;;;;;;0.76;88.12;99629.91;4910654;29;20056;-49
2020/12/08 05:28:43;;;;;;;9.40;5.78;;;;;;;0.76;88.02;99622.56;4918531;29;20115;-54
2020/12/08 05:31:10;;;;;;;8.20;5.47;;;;;;;0.77;87.91;99617.91;4918788;29;20395;-51
2020/12/08 05:33:39;;;;;;;12.07;5.40;;;;;;;0.77;88.23;99615.97;4918438;29;20059;-47
2020/12/08 05:36:06;;;;;;;9.13;5.68;;;;;;;0.79;88.38;99616.50;4918331;29;20045;-48
2020/12/08 05:38:35;;;;;;;11.70;6.15;;;;;;;0.80;88.09;99620.81;4918301;29;20123;-49
2020/12/08 05:41:08;;;;;;;13.48;6.05;;;;;;;0.81;87.98;99608.00;4919123;29;20130;-48
2020/12/08 05:43:38;;;;;;;8.43;6.25;;;;;;;0.82;88.15;99625.97;4917994;29;20056;-48
2020/12/08 05:46:05;;;;;;;11.30;5.78;;;;;;;0.82;88.19;99612.34;4932440;29;20048;-50
2020/12/08 05:48:33;;;;;;;11.95;6.20;;;;;;;0.82;88.13;99623.25;4918187;29;20043;-47
2020/12/08 05:51:03;;;;;;;10.60;5.25;;;;;;;0.82;88.35;99610.41;4918233;29;20511;-48
2020/12/08 05:53:30;;;;;;;10.48;5.82;;;;;;;0.85;88.22;99611.75;4916999;29;20127;-49
2020/12/08 05:56:05;;;;;;;11.90;6.40;;;;;;;0.84;88.21;99618.28;4917876;29;20044;-53
2020/12/08 05:58:31;;;;;;;11.60;5.80;;;;;;;0.85;88.11;99615.25;4918000;29;20074;-48
2020/12/08 06:01:05;;;;;;;7.88;5.38;;;;;;;0.83;88.05;99633.81;4917681;29;20044;-48
2020/12/08 06:03:32;;;;;;;15.98;5.85;;;;;;;0.82;88.15;99625.97;4918460;29;20036;-48
2020/12/08 06:06:10;;;;;;;12.15;5.53;;;;;;;0.80;87.81;99634.44;4917441;29;20080;-49
2020/12/08 06:08:46;;;;;;;13.02;6.50;;;;;;;0.80;88.38;99628.19;4917643;29;20510;-50
2020/12/08 06:11:15;;;;;;;8.07;5.07;;;;;;;0.79;88.41;99632.03;4917943;29;20044;-48
2020/12/08 06:13:50;;;;;;;9.85;5.50;;;;;;;0.79;88.56;99632.03;4917784;29;20491;-49
2020/12/08 06:16:20;;;;;;;10.82;5.93;;;;;;;0.82;88.15;99625.97;4922173;29;20075;-47
2020/12/08 06:18:48;;;;;;;9.10;4.80;;;;;;;0.85;88.36;99630.81;4956150;29;20050;-49
2020/12/08 06:21:26;;;;;;;9.57;5.88;;;;;;;0.85;88.47;99631.59;4955330;29;20039;-50
2020/12/08 06:23:57;;;;;;;11.05;6.53;;;;;;;0.88;88.21;99624.72;4955301;29;20043;-47
2020/12/08 06:26:29;;;;;;;10.65;5.97;;;;;;;0.89;88.28;99637.25;4935391;29;20043;-48
2020/12/08 06:28:56;;;;;;;14.23;6.75;;;;;;;0.90;88.22;99626.03;4935936;29;20448;-48
2020/12/08 06:31:23;;;;;;;8.25;4.97;;;;;;;0.90;88.46;99636.13;4950651;29;20051;-49
2020/12/08 06:33:56;;;;;;;7.50;5.20;;;;;;;0.91;88.67;99643.19;4936355;29;20131;-47
2020/12/08 06:36:27;;;;;;;7.82;5.40;;;;;;;0.93;88.90;99639.03;4934275;29;20039;-50
2020/12/08 06:39:07;;;;;;;9.73;5.35;;;;;;;0.97;88.61;99645.50;4955067;29;20039;-50
2020/12/08 06:41:38;;;;;;;12.18;5.57;;;;;;;0.98;88.53;99655.25;4955918;29;20055;-49
2020/12/08 06:44:11;;;;;;;11.35;6.20;;;;;;;0.99;88.56;99653.34;4945772;29;20103;-48
2020/12/08 06:46:37;;;;;;;15.43;6.50;;;;;;;0.99;88.52;99653.34;4948195;29;20106;-50
2020/12/08 06:49:06;;;;;;;10.25;6.72;;;;;;;0.99;88.50;99653.34;4944934;29;20099;-49
2020/12/08 06:51:34;;;;;;;10.73;5.80;;;;;;;0.99;88.49;99654.16;4954925;29;20054;-49
2020/12/08 06:54:14;;;;;;;7.63;5.90;;;;;;;1.01;88.88;99645.66;4954014;29;20452;-49
2020/12/08 06:56:41;;;;;;;10.18;5.97;;;;;;;1.03;88.65;99638.00;4929778;29;20082;-47
2020/12/08 06:59:08;;;;;;;8.05;5.18;;;;;;;1.04;88.68;99658.66;4945318;29;20135;-49
2020/12/08 07:01:35;;;;;;;13.50;6.00;;;;;;;1.05;88.48;99661.09;4946633;29;20043;-47
2020/12/08 07:04:02;;;;;;;9.48;4.38;;;;;;;1.07;88.70;99652.59;4933591;29;20048;-47
2020/12/08 07:06:28;;;;;;;8.90;5.28;;;;;;;1.05;88.49;99646.66;4943094;29;20086;-51
2020/12/08 07:08:55;;;;;;;10.43;5.32;;;;;;;1.05;88.69;99652.94;4953724;29;20058;-48
2020/12/08 07:11:23;;;;;;;8.57;4.78;;;;;;;1.05;88.64;99647.47;4952749;29;20067;-47
2020/12/08 07:13:58;;;;;;;15.27;5.60;;;;;;;1.03;88.42;99646.97;4943618;29;20130;-51
2020/12/08 07:16:26;;;;;;;8.98;5.50;;;;;;;1.04;88.59;99656.75;4930602;29;20090;-53
2020/12/08 07:18:57;;;;;;;6.40;3.85;;;;;;;1.03;88.64;99659.81;4954195;29;20131;-47
2020/12/08 07:21:24;;;;;;;7.18;4.55;;;;;;;1.06;88.74;99653.75;4951144;29;20134;-50
2020/12/08 07:24:08;;;;;;;9.43;4.82;;;;;;;1.07;88.58;99658.06;4934525;29;20134;-47
2020/12/08 07:26:34;;;;;;;11.27;5.80;;;;;;;1.07;89.09;99666.22;4944228;29;20048;-49
2020/12/08 07:29:00;;;;;;;11.68;5.07;;;;;;;1.10;88.78;99671.06;4934168;29;20043;-47
2020/12/08 07:31:31;;;;;;;18.23;4.82;;;;;;;1.10;88.58;99668.34;4942592;29;20051;-51
2020/12/08 07:33:59;;;;;;;9.82;5.10;;;;;;;1.10;88.85;99674.59;4934700;29;20048;-47
2020/12/08 07:36:30;;;;;;;7.18;5.13;;;;;;;1.15;88.82;99668.22;4943096;29;20063;-52
2020/12/08 07:39:01;;;;;;;8.80;4.97;;;;;;;1.16;88.59;99680.75;4947876;29;20070;-46
2020/12/08 07:41:29;;;;;;;10.48;4.70;;;;;;;1.16;88.48;99686.19;4943610;29;20048;-52
2020/12/08 07:43:56;;;;;;;6.95;4.05;;;;;;;1.15;88.61;99679.13;4932677;29;20122;-49
2020/12/08 07:46:28;;;;;;;8.30;4.85;;;;;;;1.15;88.76;99676.41;4940316;29;20130;-48
2020/12/08 07:49:06;;;;;;;9.52;5.70;;;;;;;1.14;88.78;99688.41;4953375;29;20486;-46
2020/12/08 07:51:34;;;;;;;6.88;4.85;;;;;;;1.14;88.86;99688.41;4933074;29;20047;-48
2020/12/08 07:54:02;;;;;;;9.68;4.82;;;;;;;1.15;88.52;99692.75;4952310;29;20076;-46
2020/12/08 07:56:33;;;;;;;6.45;4.68;;;;;;;1.14;88.82;99688.41;4940219;29;20051;-49
2020/12/08 07:59:00;;;;;;;10.80;4.55;;;;;;;1.16;88.64;99692.47;4946775;29;20055;-46
2020/12/08 08:01:27;;;;;;;8.90;4.05;;;;;;;1.17;88.76;99687.78;4934292;29;20455;-46
2020/12/08 08:03:54;;;;;;;6.90;4.60;;;;;;;1.20;88.93;99676.28;4934439;29;20079;-48
2020/12/08 08:06:24;;;;;;;13.45;4.35;;;;;;;1.22;88.97;99680.31;4947654;29;20079;-46
2020/12/08 08:08:51;;;;;;;9.65;4.28;;;;;;;1.24;88.94;99672.63;4950471;29;20043;-48
2020/12/08 08:11:18;;;;;;;7.20;3.92;;;;;;;1.27;88.96;99675.84;4935936;29;20054;-46
2020/12/08 08:13:49;;;;;;;6.38;3.88;;;;;;;1.30;89.02;99686.16;4934204;29;20090;-48
2020/12/08 08:16:16;;;;;;;8.85;4.78;;;;;;;1.32;88.79;99673.00;4944056;28;20071;-48
2020/12/08 08:18:44;;;;;;;9.07;4.22;;;;;;;1.34;88.89;99690.66;4918374;29;20083;-47
2020/12/08 08:21:12;;;;;;;8.45;4.60;;;;;;;1.36;88.70;99691.16;4918122;29;20055;-46
2020/12/08 08:23:39;;;;;;;7.88;3.50;;;;;;;1.38;88.73;99680.72;4916644;29;20051;-50
2020/12/08 08:26:08;;;;;;;11.25;3.22;;;;;;;1.40;88.70;99680.44;4919681;29;20067;-48
2020/12/08 08:28:35;;;;;;;4.72;3.72;;;;;;;1.43;89.00;99685.28;4916539;29;20135;-48
2020/12/08 08:31:01;;;;;;;6.95;3.08;;;;;;;1.45;88.62;99688.50;4925368;29;20414;-47
2020/12/08 08:33:28;;;;;;;12.50;3.92;;;;;;;1.45;88.77;99683.84;4915748;29;20134;-47
2020/12/08 08:35:56;;;;;;;10.75;3.58;;;;;;;1.44;88.46;99695.88;4916536;29;20498;-49
2020/12/08 08:38:26;;;;;;;8.30;3.53;;;;;;;1.43;88.79;99696.97;4917514;29;20046;-46
2020/12/08 08:40:54;;;;;;;8.57;4.20;;;;;;;1.42;88.47;99706.28;4916782;29;20054;-50
2020/12/08 08:43:20;;;;;;;12.07;5.00;;;;;;;1.41;88.71;99698.41;4917484;29;20079;-49
2020/12/08 08:45:49;;;;;;;6.30;3.10;;;;;;;1.41;88.46;99703.84;4916505;29;20525;-48
2020/12/08 08:48:15;;;;;;;9.68;3.80;;;;;;;1.40;88.60;99704.97;4917448;29;20506;-47
2020/12/08 08:50:42;;;;;;;11.95;3.58;;;;;;;1.39;88.47;99701.44;4916148;29;20048;-47
2020/12/08 08:53:08;;;;;;;8.80;3.33;;;;;;;1.39;88.64;99712.34;4917844;29;20080;-51
2020/12/08 08:55:35;;;;;;;6.70;3.63;;;;;;;1.38;88.73;99723.56;4915556;29;20048;-50
2020/12/08 08:58:11;;;;;;;9.05;5.60;;;;;;;1.40;88.74;99713.16;4922347;29;20048;-48
2020/12/08 09:00:37;;;;;;;5.25;3.75;;;;;;;1.41;88.78;99721.03;4916716;29;20079;-51
2020/12/08 09:03:05;;;;;;;6.93;3.78;;;;;;;1.45;88.87;99710.31;4917510;29;20043;-49
2020/12/08 09:05:32;;;;;;;5.55;3.33;;;;;;;1.48;89.10;99715.97;4915630;29;20040;-48
2020/12/08 09:07:59;;;;;;;8.65;3.45;;;;;;;1.52;88.78;99730.56;4916848;29;20052;-51
2020/12/08 09:10:27;;;;;;;3.63;2.83;;;;;;;1.58;88.87;99742.97;4917011;29;20447;-51
2020/12/08 09:12:57;;;;;;;8.35;3.88;;;;;;;1.61;88.81;99731.44;4926745;29;20048;-49
2020/12/08 09:15:24;;;;;;;6.05;3.05;;;;;;;1.66;88.86;99734.06;4916245;29;20071;-48
2020/12/08 09:17:51;;;;;;;5.28;3.05;;;;;;;1.70;89.01;99729.56;4930181;29;20066;-49
2020/12/08 09:20:17;;;;;;;6.25;3.78;;;;;;;1.70;88.77;99735.03;4918086;29;20044;-51
2020/12/08 09:22:43;;;;;;;7.85;3.88;;;;;;;1.74;88.78;99736.03;4916122;29;20107;-52
2020/12/08 09:25:10;;;;;;;7.18;3.55;;;;;;;1.76;88.67;99728.34;4914720;29;20044;-48
2020/12/08 09:27:37;;;;;;;13.57;4.05;;;;;;;1.79;88.95;99732.34;4915450;29;20047;-47
2020/12/08 09:30:07;;;;;;;13.50;3.28;;;;;;;1.82;88.56;99738.00;4933661;29;20039;-50
2020/12/08 09:32:33;;;;;;;10.68;3.40;;;;;;;1.87;88.72;99733.53;4918666;29;20044;-48
2020/12/08 09:34:59;;;;;;;13.20;4.13;;;;;;;1.90;88.69;99743.81;4917256;29;20040;-53
2020/12/08 09:37:26;;;;;;;20.27;11.90;;;;;;;1.93;88.95;99759.56;4931121;29;20240;-48
2020/12/08 09:39:53;;;;;;;34.35;18.65;;;;;;;1.97;88.82;99749.63;4918448;29;20135;-53
2020/12/08 09:42:21;;;;;;;19.27;10.32;;;;;;;1.99;88.53;99755.56;4916177;29;20398;-50
2020/12/08 09:44:48;;;;;;;12.75;6.00;;;;;;;2.00;88.58;99759.94;4914306;29;20494;-48
2020/12/08 09:47:16;;;;;;;15.43;8.40;;;;;;;2.05;88.57;99757.88;4913734;29;20063;-53
2020/12/08 09:49:45;;;;;;;17.83;9.85;;;;;;;2.11;88.98;99758.56;4916586;29;20051;-49
2020/12/08 09:52:14;;;;;;;8.98;5.15;;;;;;;2.17;88.57;99749.13;4913965;29;20700;-49
2020/12/08 09:54:41;;;;;;;7.88;3.08;;;;;;;2.22;88.72;99757.97;4915615;29;20059;-49
2020/12/08 09:57:07;;;;;;;12.30;5.03;;;;;;;2.28;89.03;99762.16;4923696;29;20074;-52
2020/12/08 09:59:35;;;;;;;8.10;4.57;;;;;;;2.34;88.55;99757.38;4898171;29;20050;-48
2020/12/08 10:02:03;;;;;;;15.68;8.25;;;;;;;2.41;88.92;99771.38;4914403;29;20051;-49
2020/12/08 10:04:35;;;;;;;11.90;2.97;;;;;;;2.49;88.60;99778.00;4915424;29;20131;-49
2020/12/08 10:07:03;;;;;;;7.97;2.78;;;;;;;2.56;88.95;99783.81;4929962;29;20041;-50
2020/12/08 10:09:29;;;;;;;6.65;2.38;;;;;;;2.65;88.79;99784.66;4915407;29;20063;-54
2020/12/08 10:11:56;;;;;;;13.57;7.53;;;;;;;2.72;88.90;99787.75;4913518;29;20055;-48
2020/12/08 10:14:22;;;;;;;8.80;3.75;;;;;;;2.79;88.73;99793.53;4916033;29;20048;-49
2020/12/08 10:16:50;;;;;;;9.68;5.03;;;;;;;2.85;88.46;99793.09;4921043;29;20115;-50
2020/12/08 10:19:18;;;;;;;7.35;2.40;;;;;;;2.89;88.27;99802.25;4935459;29;20039;-51
2020/12/08 10:21:45;;;;;;;13.32;5.82;;;;;;;2.92;88.32;99809.81;4933312;29;20043;-53
2020/12/08 10:24:12;;;;;;;9.68;3.10;;;;;;;2.93;88.51;99811.44;4949297;28;20054;-51
2020/12/08 10:26:39;;;;;;;8.02;3.75;;;;;;;2.96;88.38;99802.63;4931744;29;20078;-52
2020/12/08 10:29:07;;;;;;;8.07;2.90;;;;;;;3.00;88.27;99800.84;4933490;28;20614;-54
2020/12/08 10:31:34;;;;;;;10.93;3.75;;;;;;;3.05;88.42;99803.44;4915640;29;20048;-50
2020/12/08 10:34:00;;;;;;;13.02;7.72;;;;;;;3.12;88.06;99813.09;4914396;29;20058;-51
2020/12/08 10:36:26;;;;;;;12.38;5.30;;;;;;;3.17;87.88;99821.16;4932429;29;20047;-49
2020/12/08 10:38:53;;;;;;;7.28;3.22;;;;;;;3.18;88.34;99817.31;4933625;29;20175;-50
2020/12/08 10:41:20;;;;;;;4.90;2.17;;;;;;;3.23;88.01;99819.88;4932131;29;20040;-50
2020/12/08 10:43:47;;;;;;;6.88;1.70;;;;;;;3.25;87.81;99812.16;4931877;29;20122;-53
2020/12/08 10:46:14;;;;;;;12.93;2.70;;;;;;;3.29;87.93;99807.63;4932434;29;20075;-48
2020/12/08 10:48:41;;;;;;;8.18;1.60;;;;;;;3.32;87.77;99809.75;4932881;29;20047;-49
2020/12/08 10:51:07;;;;;;;4.78;3.63;;;;;;;3.34;87.76;99818.44;4932167;29;20051;-54
2020/12/08 10:53:34;;;;;;;3.47;1.77;;;;;;;3.35;87.40;99806.38;4934351;29;20055;-50
2020/12/08 10:56:02;;;;;;;6.90;2.15;;;;;;;3.38;87.71;99816.69;4934040;29;20134;-50
2020/12/08 10:58:29;;;;;;;11.65;2.20;;;;;;;3.37;87.35;99820.53;4953932;29;20039;-49
2020/12/08 11:00:56;;;;;;;8.77;1.67;;;;;;;3.38;87.56;99812.03;4939498;29;20056;-51
2020/12/08 11:03:22;;;;;;;5.35;2.20;;;;;;;3.41;87.50;99816.03;4931092;29;20062;-53
2020/12/08 11:05:48;;;;;;;6.72;2.17;;;;;;;3.45;87.56;99827.94;4943379;29;20047;-53
2020/12/08 11:08:16;;;;;;;7.43;2.55;;;;;;;3.51;87.38;99818.47;4952543;29;20071;-50
2020/12/08 11:10:43;;;;;;;8.15;2.65;;;;;;;3.58;87.08;99827.00;4936679;29;20047;-55
2020/12/08 11:13:13;;;;;;;6.20;2.05;;;;;;;3.67;87.38;99841.50;4926450;29;20104;-49
2020/12/08 11:16:03;;;;;;;6.53;1.80;;;;;;;3.72;87.05;99827.66;4933357;29;20051;-51
2020/12/08 11:18:34;;;;;;;11.82;2.47;;;;;;;3.78;86.67;99831.84;4934010;29;20063;-48
2020/12/08 11:21:03;;;;;;;7.95;1.92;;;;;;;3.80;86.63;99835.06;4933553;29;20070;-49
2020/12/08 11:23:29;;;;;;;5.93;3.15;;;;;;;3.83;86.75;99845.38;4934101;29;20574;-49
2020/12/08 11:25:55;;;;;;;5.18;1.35;;;;;;;3.86;86.55;99839.25;4933301;29;20410;-50
2020/12/08 11:28:22;;;;;;;8.68;2.38;;;;;;;3.89;86.57;99838.56;4933496;29;20047;-53
2020/12/08 11:30:48;;;;;;;8.60;1.77;;;;;;;3.94;86.76;99832.97;4933915;29;20431;-50
2020/12/08 11:33:14;;;;;;;6.15;3.03;;;;;;;3.99;86.49;99837.47;4933274;29;20048;-49
2020/12/08 11:35:41;;;;;;;8.02;2.20;;;;;;;4.01;86.45;99836.00;4933865;29;20071;-52
2020/12/08 11:38:07;;;;;;;11.68;2.85;;;;;;;4.04;86.37;99840.03;4933642;29;20379;-49